KSAC/SAC METAR and TAF weather

Enter ICAO airport designator
Station Type Date Time Source
KSAC METAR 2022/01/18 07:53 UTC NOAA

KSAC 180753Z AUTO 00000KT 6SM BR BKN100 05/04 A3008 RMK AO2 SLP186 T00500044 401440011


Station Type Date Time Source
KSAC Decoded METAR 2022/01/18 07:53 UTC NOAA

SACRAMENTO EXECUTIVE AIRPORT , CA, United States (KSAC) 38-30N 121-30W 11M
Jan 18, 2022 - 02:53 AM EST / 2022.01.18 0753 UTC
Wind: Calm:0
Visibility: 6 mile(s):0
Sky conditions: mostly cloudy
Weather: mist
Temperature: 41.0 F (5.0 C)
Dew Point: 39.9 F (4.4 C)
Relative Humidity: 95%
Pressure (altimeter): 30.08 in. Hg (1018 hPa)
ob: KSAC 180753Z AUTO 00000KT 6SM BR BKN100 05/04 A3008 RMK AO2 SLP186 T00500044 401440011
cycle: 8

Station Type Date Time Source
KSAC TAF 2022/01/18 06:22 UTC NOAA

TAF KSAC 180520Z 1806/1906 VRB03KT P6SM BKN200
FM180800 00000KT 4SM BR BKN200
FM181000 VRB03KT 1SM BR BKN200
FM181500 00000KT 1/4SM FG VV001
FM181700 VRB03KT 6SM BR BKN003
FM181900 VRB03KT P6SM BKN200

Example: see airport list